sensor_id;sensor_type;location;lat;lon;timestamp;P1;durP1;ratioP1;P2;durP2;ratioP2
48285;SDS011;34102;47.716;10.296;2023-01-10T04:31:43;1.02;;;0.10;;
48285;SDS011;34102;47.716;10.296;2023-01-10T04:34:08;0.65;;;0.00;;
48285;SDS011;34102;47.716;10.296;2023-01-10T04:36:33;0.10;;;0.08;;
48285;SDS011;34102;47.716;10.296;2023-01-10T04:38:59;0.03;;;0.00;;
48285;SDS011;34102;47.716;10.296;2023-01-10T04:41:24;0.10;;;0.00;;
48285;SDS011;34102;47.716;10.296;2023-01-10T04:43:49;0.10;;;0.00;;
48285;SDS011;34102;47.716;10.296;2023-01-10T04:46:15;0.22;;;0.08;;
48285;SDS011;34102;47.716;10.296;2023-01-10T04:48:40;1.95;;;0.30;;
48285;SDS011;34102;47.716;10.296;2023-01-10T04:51:08;0.77;;;0.20;;
48285;SDS011;34102;47.716;10.296;2023-01-10T04:53:34;2.15;;;1.05;;
48285;SDS011;34102;47.716;10.296;2023-01-10T04:56:03;0.70;;;0.20;;
48285;SDS011;34102;47.716;10.296;2023-01-10T04:58:28;0.20;;;0.10;;
48285;SDS011;34102;47.716;10.296;2023-01-10T05:00:55;0.00;;;0.00;;
48285;SDS011;34102;47.716;10.296;2023-01-10T05:03:21;0.10;;;0.00;;
48285;SDS011;34102;47.716;10.296;2023-01-10T05:05:46;0.10;;;0.10;;
48285;SDS011;34102;47.716;10.296;2023-01-10T05:08:11;0.10;;;0.00;;
48285;SDS011;34102;47.716;10.296;2023-01-10T05:10:36;0.00;;;0.00;;
48285;SDS011;34102;47.716;10.296;2023-01-10T05:13:02;0.10;;;0.00;;
48285;SDS011;34102;47.716;10.296;2023-01-10T05:15:27;0.00;;;0.00;;
48285;SDS011;34102;47.716;10.296;2023-01-10T05:17:59;1.10;;;0.00;;
48285;SDS011;34102;47.716;10.296;2023-01-10T05:20:24;0.00;;;0.00;;
48285;SDS011;34102;47.716;10.296;2023-01-10T05:22:49;0.20;;;0.00;;
48285;SDS011;34102;47.716;10.296;2023-01-10T05:25:15;0.00;;;0.00;;
48285;SDS011;34102;47.716;10.296;2023-01-10T05:27:40;0.08;;;0.00;;
48285;SDS011;34102;47.716;10.296;2023-01-10T05:30:08;0.10;;;0.00;;
48285;SDS011;34102;47.716;10.296;2023-01-10T05:32:33;0.20;;;0.00;;
48285;SDS011;34102;47.716;10.296;2023-01-10T05:34:58;0.20;;;0.10;;
48285;SDS011;34102;47.716;10.296;2023-01-10T05:37:24;1.00;;;0.10;;
48285;SDS011;34102;47.716;10.296;2023-01-10T05:39:49;0.25;;;0.10;;
48285;SDS011;34102;47.716;10.296;2023-01-10T05:42:14;0.88;;;0.20;;
48285;SDS011;34102;47.716;10.296;2023-01-10T05:44:39;0.30;;;0.10;;
48285;SDS011;34102;47.716;10.296;2023-01-10T05:47:05;4.85;;;1.75;;
48285;SDS011;34102;47.716;10.296;2023-01-10T05:49:30;8.77;;;2.83;;
48285;SDS011;34102;47.716;10.296;2023-01-10T05:51:55;9.32;;;3.20;;
48285;SDS011;34102;47.716;10.296;2023-01-10T05:54:20;2.38;;;0.93;;
48285;SDS011;34102;47.716;10.296;2023-01-10T05:56:45;0.30;;;0.10;;
48285;SDS011;34102;47.716;10.296;2023-01-10T05:59:11;0.43;;;0.10;;
48285;SDS011;34102;47.716;10.296;2023-01-10T06:01:36;0.68;;;0.20;;
48285;SDS011;34102;47.716;10.296;2023-01-10T06:04:01;1.40;;;0.10;;
48285;SDS011;34102;47.716;10.296;2023-01-10T06:06:26;1.20;;;0.57;;
48285;SDS011;34102;47.716;10.296;2023-01-10T06:08:52;0.65;;;0.10;;
48285;SDS011;34102;47.716;10.296;2023-01-10T06:11:20;1.95;;;0.20;;
48285;SDS011;34102;47.716;10.296;2023-01-10T06:13:45;4.38;;;0.40;;
48285;SDS011;34102;47.716;10.296;2023-01-10T06:16:12;1.48;;;0.30;;
48285;SDS011;34102;47.716;10.296;2023-01-10T06:18:38;0.85;;;0.40;;
48285;SDS011;34102;47.716;10.296;2023-01-10T06:21:03;3.20;;;1.23;;
48285;SDS011;34102;47.716;10.296;2023-01-10T06:23:28;7.32;;;0.82;;
48285;SDS011;34102;47.716;10.296;2023-01-10T06:25:54;8.63;;;0.93;;
48285;SDS011;34102;47.716;10.296;2023-01-10T06:28:19;7.07;;;0.60;;
48285;SDS011;34102;47.716;10.296;2023-01-10T06:30:45;4.47;;;0.38;;
48285;SDS011;34102;47.716;10.296;2023-01-10T06:33:10;1.15;;;0.30;;
48285;SDS011;34102;47.716;10.296;2023-01-10T06:35:36;0.68;;;0.20;;
48285;SDS011;34102;47.716;10.296;2023-01-10T06:38:01;0.88;;;0.30;;
48285;SDS011;34102;47.716;10.296;2023-01-10T06:40:27;0.98;;;0.25;;
48285;SDS011;34102;47.716;10.296;2023-01-10T06:42:52;1.88;;;0.30;;
48285;SDS011;34102;47.716;10.296;2023-01-10T06:45:17;3.05;;;0.50;;
48285;SDS011;34102;47.716;10.296;2023-01-10T06:47:43;1.48;;;0.40;;
48285;SDS011;34102;47.716;10.296;2023-01-10T06:50:08;1.27;;;0.40;;
48285;SDS011;34102;47.716;10.296;2023-01-10T06:52:34;0.70;;;0.20;;
48285;SDS011;34102;47.716;10.296;2023-01-10T06:54:59;1.50;;;0.40;;
48285;SDS011;34102;47.716;10.296;2023-01-10T06:57:24;1.55;;;0.63;;
48285;SDS011;34102;47.716;10.296;2023-01-10T06:59:49;1.98;;;0.20;;
